Scampton, United Kingdom
Current Conditions -  °F | °C
As of 4:50 AM on Sunday 26 Oct 2014 (Local Time) from EGXP Reporting Station
Few Clouds Few Clouds  
Wind Chill: 11°   Ceiling: Unl
Heat Index: 11°   Visibility: 6mi
Dew Point:   Wind: 13mph
Humidity: 88%   Direction: 210°SSW
Pressure: 30"   Gusts: NA
Location:  53.3°N, 0.58°W
Report Text: EGXP 260350Z AUTO 21011KT 9999 // FEW033/// 11/09 Q1016
Loading
Personal Weather Stations






























Interactive Weather Map
Tropical Storm Tracking
New forecast layout! Learn more

10-Day Weather Forecast

Advertisements
Track Severe Weather on mobile